sensor_id;sensor_type;location;lat;lon;timestamp;pressure;altitude;pressure_sealevel;temperature;humidity
18765;BME280;9511;54.242;12.448;2024-02-21T00:01:33;101573.03;;;6.78;100.00
18765;BME280;9511;54.242;12.448;2024-02-21T00:04:02;101578.38;;;6.79;100.00
18765;BME280;9511;54.242;12.448;2024-02-21T00:06:29;101569.59;;;6.79;100.00
18765;BME280;9511;54.242;12.448;2024-02-21T00:08:56;101560.63;;;6.75;100.00
18765;BME280;9511;54.242;12.448;2024-02-21T00:11:23;101569.41;;;6.76;100.00
18765;BME280;9511;54.242;12.448;2024-02-21T00:13:50;101557.09;;;6.75;100.00
18765;BME280;9511;54.242;12.448;2024-02-21T00:16:18;101560.72;;;6.77;100.00
18765;BME280;9511;54.242;12.448;2024-02-21T00:18:45;101559.47;;;6.70;100.00
18765;BME280;9511;54.242;12.448;2024-02-21T00:21:13;101537.53;;;6.70;100.00
18765;BME280;9511;54.242;12.448;2024-02-21T00:23:43;101541.97;;;6.71;100.00
18765;BME280;9511;54.242;12.448;2024-02-21T00:26:11;101533.84;;;6.66;100.00
18765;BME280;9511;54.242;12.448;2024-02-21T00:28:39;101524.56;;;6.73;100.00
18765;BME280;9511;54.242;12.448;2024-02-21T00:31:06;101524.38;;;6.70;100.00
18765;BME280;9511;54.242;12.448;2024-02-21T00:33:33;101515.59;;;6.69;100.00
18765;BME280;9511;54.242;12.448;2024-02-21T00:36:01;101516.41;;;6.68;100.00
18765;BME280;9511;54.242;12.448;2024-02-21T00:38:29;101512.06;;;6.69;100.00
18765;BME280;9511;54.242;12.448;2024-02-21T00:40:56;101492.09;;;6.72;100.00
18765;BME280;9511;54.242;12.448;2024-02-21T00:43:23;101500.00;;;6.72;100.00
18765;BME280;9511;54.242;12.448;2024-02-21T00:45:51;101493.84;;;6.72;100.00
18765;BME280;9511;54.242;12.448;2024-02-21T00:48:18;101495.56;;;6.71;100.00
18765;BME280;9511;54.242;12.448;2024-02-21T00:50:45;101487.09;;;6.77;100.00
18765;BME280;9511;54.242;12.448;2024-02-21T00:53:12;101483.78;;;6.81;100.00
18765;BME280;9511;54.242;12.448;2024-02-21T00:55:41;101482.06;;;6.81;100.00
18765;BME280;9511;54.242;12.448;2024-02-21T00:58:09;101457.09;;;6.73;100.00
18765;BME280;9511;54.242;12.448;2024-02-21T01:00:36;101476.97;;;6.84;100.00
18765;BME280;9511;54.242;12.448;2024-02-21T01:03:04;101476.06;;;6.84;100.00
18765;BME280;9511;54.242;12.448;2024-02-21T01:05:31;101460.94;;;6.80;100.00
18765;BME280;9511;54.242;12.448;2024-02-21T01:07:58;101466.38;;;6.83;100.00
18765;BME280;9511;54.242;12.448;2024-02-21T01:10:25;101461.13;;;6.83;100.00
18765;BME280;9511;54.242;12.448;2024-02-21T01:12:54;101456.06;;;6.87;100.00
18765;BME280;9511;54.242;12.448;2024-02-21T01:15:21;101454.19;;;6.85;100.00
18765;BME280;9511;54.242;12.448;2024-02-21T01:17:48;101444.50;;;6.84;100.00
18765;BME280;9511;54.242;12.448;2024-02-21T01:20:16;101437.44;;;6.83;100.00
18765;BME280;9511;54.242;12.448;2024-02-21T01:22:44;101439.38;;;6.87;100.00
18765;BME280;9511;54.242;12.448;2024-02-21T01:25:11;101432.31;;;6.86;100.00
18765;BME280;9511;54.242;12.448;2024-02-21T01:27:38;101433.28;;;6.88;100.00
18765;BME280;9511;54.242;12.448;2024-02-21T01:30:08;101427.25;;;6.89;100.00
18765;BME280;9511;54.242;12.448;2024-02-21T01:32:36;101416.91;;;6.93;100.00
18765;BME280;9511;54.242;12.448;2024-02-21T01:35:04;101413.41;;;6.93;100.00
18765;BME280;9511;54.242;12.448;2024-02-21T01:37:31;101408.97;;;6.92;100.00
18765;BME280;9511;54.242;12.448;2024-02-21T01:39:59;101409.97;;;6.94;100.00
18765;BME280;9511;54.242;12.448;2024-02-21T01:42:26;101388.75;;;6.91;100.00
18765;BME280;9511;54.242;12.448;2024-02-21T01:44:53;101366.81;;;6.90;100.00
18765;BME280;9511;54.242;12.448;2024-02-21T01:47:22;101376.88;;;6.99;100.00
18765;BME280;9511;54.242;12.448;2024-02-21T01:49:50;101380.44;;;7.00;100.00
18765;BME280;9511;54.242;12.448;2024-02-21T01:52:17;101381.22;;;6.99;100.00
18765;BME280;9511;54.242;12.448;2024-02-21T01:54:46;101373.34;;;6.99;100.00
18765;BME280;9511;54.242;12.448;2024-02-21T01:57:14;101362.91;;;7.00;100.00
18765;BME280;9511;54.242;12.448;2024-02-21T01:59:42;101362.22;;;7.04;100.00
18765;BME280;9511;54.242;12.448;2024-02-21T02:02:09;101355.22;;;7.05;100.00
18765;BME280;9511;54.242;12.448;2024-02-21T02:04:38;101342.00;;;7.03;100.00
18765;BME280;9511;54.242;12.448;2024-02-21T02:07:06;101338.53;;;7.04;100.00
18765;BME280;9511;54.242;12.448;2024-02-21T02:09:34;101335.41;;;7.11;100.00
18765;BME280;9511;54.242;12.448;2024-02-21T02:12:01;101335.31;;;7.10;100.00
18765;BME280;9511;54.242;12.448;2024-02-21T02:14:29;101320.53;;;7.12;100.00
18765;BME280;9511;54.242;12.448;2024-02-21T02:16:56;101317.97;;;7.13;100.00
18765;BME280;9511;54.242;12.448;2024-02-21T02:19:23;101311.88;;;7.14;100.00
18765;BME280;9511;54.242;12.448;2024-02-21T02:22:05;101306.53;;;7.13;100.00
18765;BME280;9511;54.242;12.448;2024-02-21T02:24:34;101305.78;;;7.15;100.00
18765;BME280;9511;54.242;12.448;2024-02-21T02:27:02;101302.31;;;7.16;100.00
18765;BME280;9511;54.242;12.448;2024-02-21T02:29:31;101297.13;;;7.18;100.00
18765;BME280;9511;54.242;12.448;2024-02-21T02:31:59;101289.97;;;7.15;100.00
18765;BME280;9511;54.242;12.448;2024-02-21T02:34:26;101289.97;;;7.15;100.00
18765;BME280;9511;54.242;12.448;2024-02-21T02:36:53;101278.84;;;7.21;100.00
18765;BME280;9511;54.242;12.448;2024-02-21T02:39:20;101282.47;;;7.23;100.00
18765;BME280;9511;54.242;12.448;2024-02-21T02:41:49;101268.25;;;7.19;100.00
18765;BME280;9511;54.242;12.448;2024-02-21T02:44:16;101264.13;;;7.25;100.00
18765;BME280;9511;54.242;12.448;2024-02-21T02:46:43;101263.34;;;7.27;100.00
18765;BME280;9511;54.242;12.448;2024-02-21T02:49:11;101257.34;;;7.30;100.00
18765;BME280;9511;54.242;12.448;2024-02-21T02:51:41;101264.41;;;7.31;100.00
18765;BME280;9511;54.242;12.448;2024-02-21T02:54:08;101253.88;;;7.31;100.00
18765;BME280;9511;54.242;12.448;2024-02-21T02:56:35;101242.38;;;7.29;100.00
18765;BME280;9511;54.242;12.448;2024-02-21T02:59:04;101245.91;;;7.29;100.00
18765;BME280;9511;54.242;12.448;2024-02-21T03:01:33;101240.66;;;7.29;100.00
18765;BME280;9511;54.242;12.448;2024-02-21T03:04:01;101236.97;;;7.26;100.00
18765;BME280;9511;54.242;12.448;2024-02-21T03:06:29;101219.22;;;7.22;100.00
18765;BME280;9511;54.242;12.448;2024-02-21T03:08:56;101222.00;;;7.25;100.00
18765;BME280;9511;54.242;12.448;2024-02-21T03:11:23;101209.75;;;7.25;100.00
18765;BME280;9511;54.242;12.448;2024-02-21T03:13:55;101204.44;;;7.24;100.00
18765;BME280;9511;54.242;12.448;2024-02-21T03:16:24;101191.13;;;7.21;100.00
18765;BME280;9511;54.242;12.448;2024-02-21T03:18:51;101201.03;;;7.26;100.00
18765;BME280;9511;54.242;12.448;2024-02-21T03:21:19;101184.34;;;7.26;100.00
18765;BME280;9511;54.242;12.448;2024-02-21T03:23:46;101181.50;;;7.21;100.00
18765;BME280;9511;54.242;12.448;2024-02-21T03:26:13;101176.44;;;7.26;100.00
18765;BME280;9511;54.242;12.448;2024-02-21T03:28:43;101176.44;;;7.26;100.00
18765;BME280;9511;54.242;12.448;2024-02-21T03:31:11;101173.13;;;7.30;100.00
18765;BME280;9511;54.242;12.448;2024-02-21T03:33:42;101169.50;;;7.28;100.00
18765;BME280;9511;54.242;12.448;2024-02-21T03:36:13;101166.69;;;7.23;100.00
18765;BME280;9511;54.242;12.448;2024-02-21T03:38:40;101148.19;;;7.22;100.00
18765;BME280;9511;54.242;12.448;2024-02-21T03:41:07;101143.13;;;7.26;100.00
18765;BME280;9511;54.242;12.448;2024-02-21T03:43:35;101149.34;;;7.28;100.00
18765;BME280;9511;54.242;12.448;2024-02-21T03:46:02;101168.88;;;7.33;100.00
18765;BME280;9511;54.242;12.448;2024-02-21T03:48:29;101146.81;;;7.30;100.00
18765;BME280;9511;54.242;12.448;2024-02-21T03:50:58;101165.44;;;7.34;100.00
18765;BME280;9511;54.242;12.448;2024-02-21T03:53:25;101155.81;;;7.35;100.00
18765;BME280;9511;54.242;12.448;2024-02-21T03:55:52;101161.34;;;7.41;100.00
18765;BME280;9511;54.242;12.448;2024-02-21T03:58:20;101166.63;;;7.41;100.00
18765;BME280;9511;54.242;12.448;2024-02-21T04:00:48;101142.09;;;7.42;100.00
18765;BME280;9511;54.242;12.448;2024-02-21T04:03:15;101137.50;;;7.38;100.00
18765;BME280;9511;54.242;12.448;2024-02-21T04:05:42;101143.75;;;7.40;100.00
18765;BME280;9511;54.242;12.448;2024-02-21T04:08:11;101145.78;;;7.45;100.00
18765;BME280;9511;54.242;12.448;2024-02-21T04:10:38;101147.47;;;7.45;100.00
18765;BME280;9511;54.242;12.448;2024-02-21T04:13:06;101159.81;;;7.46;100.00
18765;BME280;9511;54.242;12.448;2024-02-21T04:15:34;101157.38;;;7.51;100.00
18765;BME280;9511;54.242;12.448;2024-02-21T04:18:01;101156.56;;;7.52;100.00
18765;BME280;9511;54.242;12.448;2024-02-21T04:20:29;101151.19;;;7.50;100.00
18765;BME280;9511;54.242;12.448;2024-02-21T04:22:56;101135.41;;;7.50;100.00
18765;BME280;9511;54.242;12.448;2024-02-21T04:25:25;101148.84;;;7.56;100.00
18765;BME280;9511;54.242;12.448;2024-02-21T04:27:52;101164.72;;;7.58;100.00
18765;BME280;9511;54.242;12.448;2024-02-21T04:30:19;101144.28;;;7.52;100.00
18765;BME280;9511;54.242;12.448;2024-02-21T04:32:46;101141.84;;;7.57;100.00
18765;BME280;9511;54.242;12.448;2024-02-21T04:35:13;101145.25;;;7.54;100.00
18765;BME280;9511;54.242;12.448;2024-02-21T04:37:41;101138.25;;;7.55;100.00
18765;BME280;9511;54.242;12.448;2024-02-21T04:40:08;101135.56;;;7.53;100.00
18765;BME280;9511;54.242;12.448;2024-02-21T04:42:37;101138.31;;;7.56;100.00
18765;BME280;9511;54.242;12.448;2024-02-21T04:45:06;101133.94;;;7.57;100.00
18765;BME280;9511;54.242;12.448;2024-02-21T04:47:33;101126.81;;;7.54;100.00
18765;BME280;9511;54.242;12.448;2024-02-21T04:50:00;101135.69;;;7.56;100.00
18765;BME280;9511;54.242;12.448;2024-02-21T04:52:28;101122.13;;;7.47;100.00
18765;BME280;9511;54.242;12.448;2024-02-21T04:54:55;101147.09;;;7.57;100.00
18765;BME280;9511;54.242;12.448;2024-02-21T04:57:23;101134.16;;;7.61;100.00
18765;BME280;9511;54.242;12.448;2024-02-21T04:59:52;101126.34;;;7.63;100.00
18765;BME280;9511;54.242;12.448;2024-02-21T05:02:19;101130.66;;;7.62;100.00
18765;BME280;9511;54.242;12.448;2024-02-21T05:04:48;101129.78;;;7.62;100.00
18765;BME280;9511;54.242;12.448;2024-02-21T05:07:16;101130.66;;;7.62;100.00
18765;BME280;9511;54.242;12.448;2024-02-21T05:09:43;101136.88;;;7.63;100.00
18765;BME280;9511;54.242;12.448;2024-02-21T05:12:10;101130.66;;;7.62;100.00
18765;BME280;9511;54.242;12.448;2024-02-21T05:14:37;101135.94;;;7.62;100.00
18765;BME280;9511;54.242;12.448;2024-02-21T05:17:06;101135.19;;;7.65;100.00
18765;BME280;9511;54.242;12.448;2024-02-21T05:19:33;101131.50;;;7.61;100.00
18765;BME280;9511;54.242;12.448;2024-02-21T05:22:01;101125.56;;;7.65;100.00
18765;BME280;9511;54.242;12.448;2024-02-21T05:24:28;101129.28;;;7.70;100.00
18765;BME280;9511;54.242;12.448;2024-02-21T05:26:56;101135.06;;;7.83;100.00
18765;BME280;9511;54.242;12.448;2024-02-21T05:29:23;101134.81;;;7.77;100.00
18765;BME280;9511;54.242;12.448;2024-02-21T05:31:57;101133.13;;;7.79;100.00
18765;BME280;9511;54.242;12.448;2024-02-21T05:34:26;101140.97;;;7.77;100.00
18765;BME280;9511;54.242;12.448;2024-02-21T05:36:53;101134.81;;;7.77;100.00
18765;BME280;9511;54.242;12.448;2024-02-21T05:39:21;101139.19;;;7.76;100.00
18765;BME280;9511;54.242;12.448;2024-02-21T05:41:49;101137.44;;;7.77;100.00
18765;BME280;9511;54.242;12.448;2024-02-21T05:44:16;101146.38;;;7.80;100.00
18765;BME280;9511;54.242;12.448;2024-02-21T05:46:44;101144.81;;;7.85;100.00
18765;BME280;9511;54.242;12.448;2024-02-21T05:49:11;101149.06;;;7.82;100.00
18765;BME280;9511;54.242;12.448;2024-02-21T05:51:39;101168.59;;;7.87;100.00
18765;BME280;9511;54.242;12.448;2024-02-21T05:54:07;101165.47;;;7.75;100.00
18765;BME280;9511;54.242;12.448;2024-02-21T05:56:34;101171.66;;;7.77;100.00
18765;BME280;9511;54.242;12.448;2024-02-21T05:59:01;101154.78;;;7.71;100.00
18765;BME280;9511;54.242;12.448;2024-02-21T06:01:29;101147.44;;;7.64;100.00
18765;BME280;9511;54.242;12.448;2024-02-21T06:03:56;101163.53;;;7.51;100.00
18765;BME280;9511;54.242;12.448;2024-02-21T06:06:23;101147.47;;;7.45;100.00
18765;BME280;9511;54.242;12.448;2024-02-21T06:08:52;101149.94;;;7.40;100.00
18765;BME280;9511;54.242;12.448;2024-02-21T06:11:19;101150.56;;;7.35;100.00
18765;BME280;9511;54.242;12.448;2024-02-21T06:13:46;101153.03;;;7.32;100.00
18765;BME280;9511;54.242;12.448;2024-02-21T06:16:14;101148.41;;;7.26;100.00
18765;BME280;9511;54.242;12.448;2024-02-21T06:18:41;101152.72;;;7.24;100.00
18765;BME280;9511;54.242;12.448;2024-02-21T06:21:09;101151.66;;;7.21;100.00
18765;BME280;9511;54.242;12.448;2024-02-21T06:23:37;101141.97;;;7.19;100.00
18765;BME280;9511;54.242;12.448;2024-02-21T06:26:05;101136.44;;;7.13;100.00
18765;BME280;9511;54.242;12.448;2024-02-21T06:28:32;101145.06;;;7.11;100.00
18765;BME280;9511;54.242;12.448;2024-02-21T06:31:00;101150.94;;;7.05;100.00
18765;BME280;9511;54.242;12.448;2024-02-21T06:33:27;101140.75;;;7.11;100.00
18765;BME280;9511;54.242;12.448;2024-02-21T06:35:54;101143.63;;;6.98;100.00
18765;BME280;9511;54.242;12.448;2024-02-21T06:38:21;101149.03;;;7.01;100.00
18765;BME280;9511;54.242;12.448;2024-02-21T06:40:49;101146.41;;;7.01;100.00
18765;BME280;9511;54.242;12.448;2024-02-21T06:43:20;101137.53;;;6.99;100.00
18765;BME280;9511;54.242;12.448;2024-02-21T06:45:48;101141.16;;;7.01;100.00
18765;BME280;9511;54.242;12.448;2024-02-21T06:48:17;101137.63;;;7.01;100.00
18765;BME280;9511;54.242;12.448;2024-02-21T06:50:45;101148.88;;;6.98;100.00
18765;BME280;9511;54.242;12.448;2024-02-21T06:53:12;101139.19;;;6.97;100.00
18765;BME280;9511;54.242;12.448;2024-02-21T06:55:39;101125.16;;;6.97;100.00
18765;BME280;9511;54.242;12.448;2024-02-21T06:58:07;101124.31;;;6.98;100.00
18765;BME280;9511;54.242;12.448;2024-02-21T07:00:39;101121.56;;;6.95;100.00
18765;BME280;9511;54.242;12.448;2024-02-21T07:03:07;101111.22;;;6.99;100.00
18765;BME280;9511;54.242;12.448;2024-02-21T07:05:34;101105.63;;;6.91;100.00
18765;BME280;9511;54.242;12.448;2024-02-21T07:08:01;101107.94;;;6.84;100.00
18765;BME280;9511;54.242;12.448;2024-02-21T07:10:29;101114.63;;;6.77;100.00
18765;BME280;9511;54.242;12.448;2024-02-21T07:12:56;101133.03;;;6.77;100.00
18765;BME280;9511;54.242;12.448;2024-02-21T07:15:23;101131.09;;;6.73;100.00
18765;BME280;9511;54.242;12.448;2024-02-21T07:17:54;101140.84;;;6.76;100.00
18765;BME280;9511;54.242;12.448;2024-02-21T07:20:21;101124.94;;;6.73;100.00
18765;BME280;9511;54.242;12.448;2024-02-21T07:22:48;101135.06;;;6.83;100.00
18765;BME280;9511;54.242;12.448;2024-02-21T07:25:16;101139.75;;;6.90;100.00
18765;BME280;9511;54.242;12.448;2024-02-21T07:27:44;101148.66;;;6.93;100.00
18765;BME280;9511;54.242;12.448;2024-02-21T07:30:12;101149.03;;;7.01;100.00
18765;BME280;9511;54.242;12.448;2024-02-21T07:32:39;101138.63;;;7.04;100.00
18765;BME280;9511;54.242;12.448;2024-02-21T07:35:08;101137.06;;;7.08;100.00
18765;BME280;9511;54.242;12.448;2024-02-21T07:37:36;101148.06;;;7.18;100.00
18765;BME280;9511;54.242;12.448;2024-02-21T07:40:05;101137.50;;;7.17;100.00
18765;BME280;9511;54.242;12.448;2024-02-21T07:42:33;101151.81;;;7.24;100.00
18765;BME280;9511;54.242;12.448;2024-02-21T07:45:01;101142.19;;;7.24;100.00
18765;BME280;9511;54.242;12.448;2024-02-21T07:47:29;101125.91;;;7.13;100.00
18765;BME280;9511;54.242;12.448;2024-02-21T07:49:56;101121.34;;;7.09;100.00
18765;BME280;9511;54.242;12.448;2024-02-21T07:52:25;101124.34;;;7.17;100.00
18765;BME280;9511;54.242;12.448;2024-02-21T07:54:52;101127.13;;;7.22;100.00
18765;BME280;9511;54.242;12.448;2024-02-21T07:57:20;101135.75;;;7.17;100.00
18765;BME280;9511;54.242;12.448;2024-02-21T07:59:47;101124.19;;;7.14;100.00
18765;BME280;9511;54.242;12.448;2024-02-21T08:02:15;101135.03;;;7.22;100.00
18765;BME280;9511;54.242;12.448;2024-02-21T08:04:42;101135.31;;;7.28;100.00
18765;BME280;9511;54.242;12.448;2024-02-21T08:07:09;101142.09;;;7.42;100.00
18765;BME280;9511;54.242;12.448;2024-02-21T08:09:39;101147.72;;;7.51;100.00
18765;BME280;9511;54.242;12.448;2024-02-21T08:12:06;101146.09;;;7.53;100.00
18765;BME280;9511;54.242;12.448;2024-02-21T08:14:34;101139.34;;;7.60;100.00
18765;BME280;9511;54.242;12.448;2024-02-21T08:17:01;101131.25;;;7.55;100.00
18765;BME280;9511;54.242;12.448;2024-02-21T08:19:30;101128.88;;;7.61;100.00
18765;BME280;9511;54.242;12.448;2024-02-21T08:21:58;101136.09;;;7.65;100.00
18765;BME280;9511;54.242;12.448;2024-02-21T08:24:25;101130.97;;;7.68;100.00
18765;BME280;9511;54.242;12.448;2024-02-21T08:26:54;101123.97;;;7.69;100.00
18765;BME280;9511;54.242;12.448;2024-02-21T08:29:21;101115.03;;;7.65;100.00
18765;BME280;9511;54.242;12.448;2024-02-21T08:31:48;101125.81;;;7.71;100.00
18765;BME280;9511;54.242;12.448;2024-02-21T08:34:16;101126.91;;;7.77;100.00
18765;BME280;9511;54.242;12.448;2024-02-21T08:36:44;101118.31;;;7.81;100.00
18765;BME280;9511;54.242;12.448;2024-02-21T08:39:11;101134.41;;;7.88;100.00
18765;BME280;9511;54.242;12.448;2024-02-21T08:41:42;101131.00;;;7.91;100.00
18765;BME280;9511;54.242;12.448;2024-02-21T08:44:11;101125.34;;;8.03;100.00
18765;BME280;9511;54.242;12.448;2024-02-21T08:46:38;101129.91;;;8.07;100.00
18765;BME280;9511;54.242;12.448;2024-02-21T08:49:06;101132.59;;;8.08;100.00
18765;BME280;9511;54.242;12.448;2024-02-21T08:51:33;101131.94;;;8.14;100.00
18765;BME280;9511;54.242;12.448;2024-02-21T08:54:01;101125.91;;;8.16;100.00
18765;BME280;9511;54.242;12.448;2024-02-21T08:56:30;101126.13;;;8.21;100.00
18765;BME280;9511;54.242;12.448;2024-02-21T08:58:57;101131.69;;;8.29;100.00
18765;BME280;9511;54.242;12.448;2024-02-21T09:01:26;101127.78;;;8.40;100.00
18765;BME280;9511;54.242;12.448;2024-02-21T09:03:53;101140.69;;;8.34;100.00
18765;BME280;9511;54.242;12.448;2024-02-21T09:06:22;101137.09;;;8.32;100.00
18765;BME280;9511;54.242;12.448;2024-02-21T09:08:50;101131.94;;;8.35;100.00
18765;BME280;9511;54.242;12.448;2024-02-21T09:11:17;101148.63;;;8.35;100.00
18765;BME280;9511;54.242;12.448;2024-02-21T09:13:44;101151.34;;;8.37;100.00
18765;BME280;9511;54.242;12.448;2024-02-21T09:16:11;101144.47;;;8.40;100.00
18765;BME280;9511;54.242;12.448;2024-02-21T09:18:40;101143.38;;;8.35;100.00
18765;BME280;9511;54.242;12.448;2024-02-21T09:21:08;101157.38;;;8.34;100.00
18765;BME280;9511;54.242;12.448;2024-02-21T09:23:35;101150.19;;;8.30;100.00
18765;BME280;9511;54.242;12.448;2024-02-21T09:26:03;101142.38;;;8.32;100.00
18765;BME280;9511;54.242;12.448;2024-02-21T09:28:30;101151.34;;;8.37;100.00
18765;BME280;9511;54.242;12.448;2024-02-21T09:30:59;101145.06;;;8.33;100.00
18765;BME280;9511;54.242;12.448;2024-02-21T09:33:26;101139.84;;;8.35;100.00
18765;BME280;9511;54.242;12.448;2024-02-21T09:35:55;101149.94;;;8.45;100.00
18765;BME280;9511;54.242;12.448;2024-02-21T09:38:22;101152.13;;;8.55;100.00
18765;BME280;9511;54.242;12.448;2024-02-21T09:40:55;101150.47;;;8.59;100.00
18765;BME280;9511;54.242;12.448;2024-02-21T09:43:26;101138.94;;;8.55;100.00
18765;BME280;9511;54.242;12.448;2024-02-21T09:45:55;101156.13;;;8.45;100.00
18765;BME280;9511;54.242;12.448;2024-02-21T09:48:37;101146.84;;;8.55;100.00
18765;BME280;9511;54.242;12.448;2024-02-21T09:51:12;101147.78;;;8.57;100.00
18765;BME280;9511;54.242;12.448;2024-02-21T09:53:42;101153.72;;;8.51;100.00
18765;BME280;9511;54.242;12.448;2024-02-21T09:56:10;101139.88;;;8.57;99.76
18765;BME280;9511;54.242;12.448;2024-02-21T09:58:38;101153.91;;;8.56;98.95
18765;BME280;9511;54.242;12.448;2024-02-21T10:01:07;101157.50;;;8.58;98.77
18765;BME280;9511;54.242;12.448;2024-02-21T10:03:34;101144.31;;;8.81;98.30
18765;BME280;9511;54.242;12.448;2024-02-21T10:06:01;101138.50;;;8.89;97.70
18765;BME280;9511;54.242;12.448;2024-02-21T10:08:30;101145.88;;;8.99;96.58
18765;BME280;9511;54.242;12.448;2024-02-21T10:10:57;101148.22;;;9.14;95.38
18765;BME280;9511;54.242;12.448;2024-02-21T10:13:27;101156.00;;;9.11;94.60
18765;BME280;9511;54.242;12.448;2024-02-21T10:16:04;101146.59;;;9.18;94.74
18765;BME280;9511;54.242;12.448;2024-02-21T10:18:32;101146.88;;;9.25;94.10
18765;BME280;9511;54.242;12.448;2024-02-21T10:21:01;101149.81;;;9.11;93.85
18765;BME280;9511;54.242;12.448;2024-02-21T10:23:29;101161.56;;;8.95;93.50
18765;BME280;9511;54.242;12.448;2024-02-21T10:26:05;101152.66;;;9.15;93.88
18765;BME280;9511;54.242;12.448;2024-02-21T10:28:32;101145.66;;;9.17;94.10
18765;BME280;9511;54.242;12.448;2024-02-21T10:30:59;101138.81;;;8.98;93.84
18765;BME280;9511;54.242;12.448;2024-02-21T10:33:26;101150.16;;;8.96;94.92
18765;BME280;9511;54.242;12.448;2024-02-21T10:35:54;101150.28;;;8.99;95.38
18765;BME280;9511;54.242;12.448;2024-02-21T10:38:22;101172.13;;;8.95;95.62
18765;BME280;9511;54.242;12.448;2024-02-21T10:40:50;101151.28;;;9.02;95.92
18765;BME280;9511;54.242;12.448;2024-02-21T10:43:19;101148.66;;;9.26;95.65
18765;BME280;9511;54.242;12.448;2024-02-21T10:45:49;101145.16;;;9.27;95.08
18765;BME280;9511;54.242;12.448;2024-02-21T10:48:21;101140.75;;;9.26;94.00
18765;BME280;9511;54.242;12.448;2024-02-21T10:50:56;101141.91;;;9.35;92.69
18765;BME280;9511;54.242;12.448;2024-02-21T10:53:30;101128.69;;;9.35;90.86
18765;BME280;9511;54.242;12.448;2024-02-21T10:56:09;101123.41;;;9.35;88.99
18765;BME280;9511;54.242;12.448;2024-02-21T10:58:38;101118.25;;;9.38;87.17
18765;BME280;9511;54.242;12.448;2024-02-21T11:01:07;101126.66;;;9.51;85.87
18765;BME280;9511;54.242;12.448;2024-02-21T11:03:35;101121.88;;;9.65;84.28
18765;BME280;9511;54.242;12.448;2024-02-21T11:06:04;101115.63;;;9.63;83.45
18765;BME280;9511;54.242;12.448;2024-02-21T11:08:31;101129.69;;;9.62;81.77
18765;BME280;9511;54.242;12.448;2024-02-21T11:10:59;101111.56;;;9.73;80.24
18765;BME280;9511;54.242;12.448;2024-02-21T11:13:35;101115.09;;;9.99;80.09
18765;BME280;9511;54.242;12.448;2024-02-21T11:16:10;101105.00;;;10.14;78.51
18765;BME280;9511;54.242;12.448;2024-02-21T11:18:37;101091.03;;;10.18;76.94
18765;BME280;9511;54.242;12.448;2024-02-21T11:21:05;101076.59;;;10.34;76.01
18765;BME280;9511;54.242;12.448;2024-02-21T11:23:32;101082.25;;;10.19;75.64
18765;BME280;9511;54.242;12.448;2024-02-21T11:26:06;101078.88;;;10.50;75.45
18765;BME280;9511;54.242;12.448;2024-02-21T11:28:35;101071.16;;;10.58;75.27
18765;BME280;9511;54.242;12.448;2024-02-21T12:43:06;100962.56;;;11.53;70.25
18765;BME280;9511;54.242;12.448;2024-02-21T12:45:34;100961.66;;;11.88;70.09
18765;BME280;9511;54.242;12.448;2024-02-21T12:48:02;100962.38;;;11.47;69.53
18765;BME280;9511;54.242;12.448;2024-02-21T12:50:30;100953.03;;;11.61;70.12
18765;BME280;9511;54.242;12.448;2024-02-21T12:52:58;100961.16;;;11.68;69.80
18765;BME280;9511;54.242;12.448;2024-02-21T12:55:25;100950.16;;;11.52;69.87
18765;BME280;9511;54.242;12.448;2024-02-21T12:57:52;100950.44;;;11.64;69.97
18765;BME280;9511;54.242;12.448;2024-02-21T13:00:21;100946.06;;;12.02;69.72
18765;BME280;9511;54.242;12.448;2024-02-21T13:02:52;100940.31;;;12.21;69.36
18765;BME280;9511;54.242;12.448;2024-02-21T13:05:19;100948.41;;;12.29;68.62
18765;BME280;9511;54.242;12.448;2024-02-21T13:07:46;100955.50;;;12.30;68.02
18765;BME280;9511;54.242;12.448;2024-02-21T13:10:14;100940.91;;;12.10;68.08
18765;BME280;9511;54.242;12.448;2024-02-21T13:12:42;100936.66;;;12.16;68.78
18765;BME280;9511;54.242;12.448;2024-02-21T13:23:14;100938.09;;;12.02;68.99
18765;BME280;9511;54.242;12.448;2024-02-21T13:26:03;100949.59;;;11.65;70.32
18765;BME280;9511;54.242;12.448;2024-02-21T13:28:30;100944.84;;;11.52;70.23
18765;BME280;9511;54.242;12.448;2024-02-21T13:30:57;100940.84;;;11.31;72.18
18765;BME280;9511;54.242;12.448;2024-02-21T13:33:24;100944.50;;;11.74;71.90
18765;BME280;9511;54.242;12.448;2024-02-21T13:35:52;100944.22;;;11.62;72.49
18765;BME280;9511;54.242;12.448;2024-02-21T13:38:20;100941.66;;;11.65;72.34
18765;BME280;9511;54.242;12.448;2024-02-21T13:40:47;100942.16;;;11.86;73.36
18765;BME280;9511;54.242;12.448;2024-02-21T13:43:14;100939.63;;;11.55;73.52
18765;BME280;9511;54.242;12.448;2024-02-21T13:45:55;100932.84;;;11.30;73.86
18765;BME280;9511;54.242;12.448;2024-02-21T13:48:22;100937.47;;;11.04;75.55
18765;BME280;9511;54.242;12.448;2024-02-21T13:50:50;100944.78;;;10.79;76.68
18765;BME280;9511;54.242;12.448;2024-02-21T13:53:17;100945.63;;;10.78;77.68
18765;BME280;9511;54.242;12.448;2024-02-21T13:55:48;100940.50;;;10.53;77.51
18765;BME280;9511;54.242;12.448;2024-02-21T13:58:15;100954.38;;;10.76;77.98
18765;BME280;9511;54.242;12.448;2024-02-21T14:00:43;100942.50;;;10.95;78.38
18765;BME280;9511;54.242;12.448;2024-02-21T14:03:10;100933.78;;;10.66;78.17
18765;BME280;9511;54.242;12.448;2024-02-21T14:05:38;100946.13;;;10.97;78.28
18765;BME280;9511;54.242;12.448;2024-02-21T14:08:06;100933.34;;;10.80;77.99
18765;BME280;9511;54.242;12.448;2024-02-21T14:18:36;100914.22;;;10.59;79.92
18765;BME280;9511;54.242;12.448;2024-02-21T14:21:04;100911.09;;;10.42;80.70
18765;BME280;9511;54.242;12.448;2024-02-21T14:23:31;100909.59;;;10.50;80.60